METAR Data
IDs: Format: Raw Decoded Include TAF

Data at: 2028 UTC 19 May 2019

KOTM 192024Z AUTO 27011G20KT 10SM FEW024 BKN038 OVC046 16/12 A2975 RMK AO2 T01560122
KOTM 191953Z AUTO 28016G22KT 10SM OVC027 15/12 A2974 RMK AO2 SLP068 T01500117
KOTM 191853Z AUTO 27010KT 10SM OVC022 16/12 A2971 RMK AO2 SLP059 T01610122
KOTM 191753Z AUTO 27012G21KT 10SM FEW017 BKN024 OVC029 16/13 A2970 RMK AO2 PK WND 28027/1656 SLP053 60002 T01610128 10189 20150 53023
KOTM 191653Z AUTO 29015G25KT 10SM SCT018 BKN026 OVC046 18/14 A2966 RMK AO2 SLP039 T01830139
KOTM 191617Z AUTO 27011KT 10SM SCT018 BKN025 OVC110 18/15 A2964 RMK AO2 T01830150
KOTM 191605Z AUTO 27008KT 10SM FEW016 BKN075 OVC110 18/14 A2964 RMK AO2 T01780144
KOTM 191553Z AUTO 28009KT 10SM FEW016 BKN029 OVC075 17/14 A2964 RMK AO2 SLP033 T01720139
KOTM 191453Z AUTO 28008KT 10SM BKN017 OVC022 16/14 A2963 RMK AO2 RAE08 SLP029 P0000 60002 T01610139 53026
KOTM 191435Z AUTO 30012KT 10SM BKN015 OVC100 16/14 A2961 RMK AO2 RAE08 P0000 T01610139
KOTM 191353Z AUTO 30009KT 10SM -RA BKN090 OVC110 16/14 A2958 RMK AO2 SLP012 P0002 T01560139
KOTM 191302Z AUTO 31012KT 6SM -RA BR SCT015 BKN050 OVC070 15/13 A2956 RMK AO2 LTG DSNT E P0001 T01500133
KOTM 191253Z AUTO 29008KT 10SM -RA BKN013 BKN020 OVC049 16/14 A2957 RMK AO2 LTG DSNT E RAB48 SLP011 P0000 T01560139
KOTM 191243Z AUTO 23008KT 10SM SCT011 BKN017 BKN039 16/14 A2958 RMK AO2 LTG DSNT E T01560139
KOTM 191210Z AUTO 29008KT 10SM FEW009 OVC065 16/14 A2955 RMK AO2 LTG DSNT SE T01560144
KOTM 191153Z AUTO 28005KT 10SM BKN060 OVC085 16/14 A2955 RMK AO2 LTG DSNT S RAE02 SLP002 P0001 60003 70150 T01560139 10178 20150 55003
KOTM 191053Z AUTO 28005KT 10SM -RA FEW010 BKN032 OVC120 16/14 A2954 RMK AO2 LTG DSNT NE RAE31B53 SLP999 P0000 T01560144
KOTM 191050Z AUTO 27006KT 10SM FEW010 BKN029 OVC095 16/14 A2954 RMK AO2 RAE31 P0000
KOTM 191010Z AUTO 25007KT 10SM -RA BKN010 OVC023 16/14 A2956 RMK AO2 P0000 T01560144
KOTM 190953Z AUTO 25007KT 10SM -RA FEW010 OVC021 16/15 A2956 RMK AO2 RAE12B29 SLP003 P0001 T01610150
KOTM 190917Z AUTO 23006KT 10SM FEW007 BKN017 OVC026 16/15 A2956 RMK AO2 LTG DSNT E AND SE RAE12 P0000 T01610150
KOTM 190853Z AUTO 31007KT 7SM -RA BKN007 BKN016 OVC047 16/15 A2954 RMK AO2 LTG DSNT SE AND S RAB38 CIG 004V013 SLP998 P0001 60001 T01610150 55004
KOTM 190844Z AUTO 31007KT 9SM -RA SCT007 BKN013 OVC048 17/16 A2954 RMK AO2 LTG DSNT S RAB38 P0001 T01670156
KOTM 190802Z AUTO 22010KT 10SM FEW009 SCT021 OVC035 17/16 A2954 RMK AO2 P0001 T01720156
KOTM 190753Z AUTO 22010G20KT 10SM FEW009 BKN028 OVC035 17/16 A2953 RMK AO2 RAB28E44 SLP994 P0000 T01720156
KOTM 190731Z AUTO 21011KT 7SM -RA FEW008 BKN014 OVC021 18/16 A2954 RMK AO2 RAB28 P0000 T01780161
KOTM 190715Z AUTO 20011KT 10SM SCT011 OVC020 18/16 A2953 RMK AO2 T01780161
KOTM 190653Z AUTO 21009KT 10SM OVC011 18/16 A2954 RMK AO2 SLP997 T01780161
KOTM 190615Z AUTO 22014G20KT 10SM BKN010 OVC014 18/16 A2955 RMK AO2 CIG 007V012 T01780161
KOTM 190553Z AUTO 21013KT 10SM OVC007 18/16 A2955 RMK AO2 PK WND 18028/0458 CIG 005V011 SLP003 60035 T01780161 10183 20167 402720156 53002
KOTM 190453Z AUTO 20018G25KT 10SM OVC008 18/17 A2955 RMK AO2 CIG 006V012 SLP002 T01830167
KOTM 190353Z AUTO 15006KT 10SM BKN009 18/17 A2953 RMK AO2 CIG 007V012 SLP994 T01780167
KOTM 190333Z AUTO 13005KT 10SM SCT007 17/16 A2953 RMK AO2 T01720161
KOTM 190316Z AUTO 08003KT 10SM BKN007 BKN023 18/17 A2954 RMK AO2 CIG 006V010 T01780167
KOTM 190303Z AUTO 08006KT 10SM SCT007 BKN022 OVC100 18/17 A2954 RMK AO2 T01830167
KOTM 190253Z AUTO 00000KT 10SM FEW007 SCT022 OVC100 18/17 A2955 RMK AO2 RAE11 SLP001 P0000 60035 T01830167 55021
KOTM 190153Z AUTO 07014G19KT 9SM -RA OVC100 18/17 A2954 RMK AO2 SLP998 P0009 T01830172
KOTM 190053Z AUTO 07007KT 3SM RA BR BKN060 OVC080 18/17 A2960 RMK AO2 LTG DSNT SE SLP019 P0026 T01830172
KOTM 190030Z AUTO 01007KT 3SM RA BR SCT005 BKN037 OVC080 18/17 A2961 RMK AO2 LTG DSNT SE AND S P0019 T01830172
KOTM 190009Z AUTO 32003KT 1 3/4SM RA BR FEW007 SCT041 OVC055 18/17 A2962 RMK AO2 LTG DSNT N AND NE P0008 T01780172
KOTM 182353Z AUTO 29006KT 3SM -RA BR FEW007 BKN055 OVC065 18/17 A2961 RMK AO2 PK WND 29040/2315 LTG DSNT ALQDS TSB08E46 SLP023 P0063 60104 T01780167 10272 20178 55002
KOTM 182346Z AUTO 30007KT 3SM -RA BR FEW008 BKN036 OVC060 18/17 A2961 RMK AO2 PK WND 29040/2315 LTG DSNT ALQDS TSB08E46 P0063 T01780167
KOTM 182338Z AUTO 30010G19KT 4SM TSRA BR FEW008 BKN026 OVC085 18/17 A2961 RMK AO2 PK WND 29040/2315 LTG DSNT ALQDS TSB08 P0059 T01780167
KOTM 182331Z AUTO 30012G20KT 2SM +TSRA BR FEW010 BKN029 OVC070 18/17 A2963 RMK AO2 PK WND 29040/2315 LTG DSNT ALQDS TSB08 P0057 T01780167
KOTM 182320Z AUTO 27017G40KT 1/2SM +TSRA FG BKN015 BKN044 OVC065 18/17 A2963 RMK AO2 PK WND 29040/2315 LTG DSNT ALQDS TSB08 PRESRR P0045 T01780167
KOTM 182314Z AUTO 1 1/2SM -TSRA BR FEW022 BKN050 OVC065 19/18 A2960 RMK AO2 PK WND 29034/2314 LTG DSNT ALQDS TSB08 P0018 T01890178
KOTM 182253Z AUTO 10003KT 10SM VCTS -RA FEW019 BKN037 OVC047 19/17 A2959 RMK AO2 PK WND 15035/2222 LTG DSNT ALQDS TSE48 SLP016 P0035 T01940167
KOTM 182248Z AUTO 13004KT 10SM VCTS -RA FEW025 BKN033 OVC047 19/17 A2960 RMK AO2 PK WND 15035/2222 LTG DSNT ALQDS TSE48 P0034
KOTM 182245Z AUTO 13004KT 10SM -TSRA FEW008 BKN028 OVC047 19/16 A2960 RMK AO2 PK WND 15035/2222 LTG DSNT ALQDS P0034 T01890161
KOTM 182238Z AUTO 14004KT 9SM -TSRA FEW010 BKN030 OVC041 19/16 A2960 RMK AO2 PK WND 15035/2222 LTG DSNT ALQDS P0034 T01890161
KOTM 182233Z AUTO 15006G33KT 2SM -TSRA SCT010 BKN023 OVC035 19/16 A2961 RMK AO2 PK WND 15035/2222 LTG DSNT ALQDS P0034 T01890156
KOTM 182225Z AUTO 12021G35KT 1 3/4SM +TSRA BR SCT010 BKN014 OVC026 19/17 A2960 RMK AO2 PK WND 15035/2222 VIS 3/4V4 LTG DSNT ALQDS P0029 T01940172
KOTM 182205Z AUTO 15007KT 3SM TSRA BR BKN014 OVC019 21/20 A2960 RMK AO2 LTG DSNT ALQDS P0008 T02110200
KOTM 182202Z AUTO 15007G17KT 2 1/2SM TSRA BR SCT014 BKN019 OVC024 22/20 A2961 RMK AO2 LTG DSNT ALQDS P0007 T02170200
KOTM 182153Z AUTO 16011KT 4SM +TSRA BKN019 BKN024 OVC033 22/19 A2962 RMK AO2 LTG DSNT ALQDS RAB41 TSB50 PRESRR SLP026 P0006 T02220194
KOTM 182141Z AUTO 15008KT 10SM VCTS -RA BKN023 OVC033 23/19 A2960 RMK AO2 LTG DSNT ALQDS RAB41 P0000 T02280194
KOTM 182053Z AUTO 19017G28KT 10SM FEW028 SCT033 BKN075 24/19 A2962 RMK AO2 PK WND 17029/2020 LTG DSNT W SLP024 T02390189 55003
KOTM 181953Z AUTO 18013KT 10SM CLR 27/19 A2961 RMK AO2 SLP020 T02670194
KOTM 181853Z AUTO 19012KT 10SM CLR 26/19 A2961 RMK AO2 PK WND 17026/1803 SLP020 T02560194
KOTM 181753Z AUTO 17018G28KT 10SM CLR 23/19 A2963 RMK AO2 PK WND 17028/1746 SLP028 60008 T02330189 10239 20178 56019
KOTM 181653Z AUTO 17019KT 10SM CLR 23/19 A2964 RMK AO2 PK WND 16026/1620 SLP032 T02330189
KOTM 181553Z AUTO 18012KT 10SM CLR 21/18 A2962 RMK AO2 SLP023 T02060183
KOTM 181453Z AUTO 20010KT 10SM CLR 20/18 A2969 RMK AO2 RAE26 SLP047 P0002 60008 T02000178 50006
KOTM 181353Z AUTO 21009KT 9SM -RA FEW030 SCT036 BKN100 18/17 A2971 RMK AO2 LTG DSNT E AND SE RAE17B38 SLP056 P0003 T01830167
KOTM 181318Z AUTO 22006KT 10SM SCT037 SCT090 BKN110 18/16 A2970 RMK AO2 LTG DSNT ALQDS RAE17 P0002 T01780161
KOTM 181253Z AUTO 24012G22KT 7SM VCTS -RA SCT041 BKN055 OVC100 19/16 A2971 RMK AO2 LTG DSNT NE AND S AND NW RAB33 SLP054 P0003 T01890156
KOTM 181153Z AUTO 17012KT 10SM SCT049 BKN100 20/15 A2967 RMK AO2 LTG DSNT NE AND W SLP040 70021 T02000150 10200 20156 58013
KOTM 181053Z AUTO 16011KT 10SM SCT060 OVC095 19/15 A2968 RMK AO2 SLP042 T01940150
KOTM 180953Z AUTO 11005KT 5SM BR SCT060 16/14 A2970 RMK AO2 SLP053 T01560144
KOTM 180853Z AUTO 11008KT 4SM BR CLR 16/14 A2971 RMK AO2 SLP054 T01560144 58004
KOTM 180832Z AUTO 11007KT 3SM BR CLR 16/14 A2971 RMK AO2 T01560144